Time;durP1;ratioP1;P1;durP2;ratioP2;P2;SDS_P1;SDS_P2;PMS_P1;PMS_P2;Temp;Humidity;BMP_temperature;BMP_pressure;BME280_temperature;BME280_humidity;BME280_pressure;Samples;Min_cycle;Max_cycle;Signal;HPM_P1;HPM_P2
2020/12/23 00:02:02;;;;;;;38.97;24.67;;;12.40;99.90;;;;;;4984683;28;20485;-79
2020/12/23 00:04:29;;;;;;;37.30;24.55;;;12.40;99.90;;;;;;4984979;28;20445;-78
2020/12/23 00:06:55;;;;;;;40.40;24.83;;;12.40;99.90;;;;;;4975617;28;20426;-78
2020/12/23 00:09:22;;;;;;;39.75;25.35;;;12.40;99.90;;;;;;4981109;28;20996;-78
2020/12/23 00:11:53;;;;;;;38.60;24.92;;;12.40;99.90;;;;;;4982154;28;20807;-77
2020/12/23 00:14:20;;;;;;;38.63;24.98;;;12.40;99.90;;;;;;4984345;28;20906;-78
2020/12/23 00:16:46;;;;;;;41.35;24.83;;;12.40;99.90;;;;;;4981184;28;20419;-77
2020/12/23 00:19:15;;;;;;;37.35;24.40;;;12.40;99.90;;;;;;4987237;28;20538;-77
2020/12/23 00:21:42;;;;;;;35.35;24.13;;;12.40;99.90;;;;;;4972682;28;20976;-78
2020/12/23 00:24:08;;;;;;;39.28;24.65;;;12.40;99.90;;;;;;4973698;28;20753;-76
2020/12/23 00:26:35;;;;;;;39.58;24.48;;;12.50;99.90;;;;;;4980711;28;20436;-76
2020/12/23 00:29:02;;;;;;;42.60;25.43;;;12.40;99.90;;;;;;4986014;28;20410;-77
2020/12/23 00:31:28;;;;;;;41.03;25.47;;;12.50;99.90;;;;;;4984977;28;20919;-77
2020/12/23 00:33:55;;;;;;;43.70;25.17;;;12.50;99.90;;;;;;4974401;28;20426;-78
2020/12/23 00:36:21;;;;;;;39.97;25.80;;;12.50;99.90;;;;;;4973210;28;20430;-79
2020/12/23 00:38:48;;;;;;;38.95;25.48;;;12.50;99.90;;;;;;4984958;28;20427;-79
2020/12/23 00:41:15;;;;;;;42.33;26.20;;;12.50;99.90;;;;;;4984994;28;20501;-78
2020/12/23 00:43:41;;;;;;;45.10;27.07;;;12.50;99.90;;;;;;4973538;28;20846;-78
2020/12/23 00:46:12;;;;;;;46.60;26.95;;;12.50;99.90;;;;;;4984547;28;20504;-76
2020/12/23 00:48:39;;;;;;;43.30;27.17;;;12.50;99.90;;;;;;4986724;28;20422;-79
2020/12/23 00:51:10;;;;;;;46.45;28.05;;;12.50;99.90;;;;;;4973931;28;20430;-78
2020/12/23 00:53:39;;;;;;;51.58;29.05;;;12.40;99.90;;;;;;4982071;28;20469;-77
2020/12/23 00:56:08;;;;;;;51.28;29.52;;;12.50;99.90;;;;;;4983952;28;20415;-80
2020/12/23 00:58:34;;;;;;;52.67;29.98;;;12.50;99.90;;;;;;4984075;28;20436;-79
2020/12/23 01:01:01;;;;;;;53.05;29.98;;;12.50;99.90;;;;;;4982057;28;20434;-79
2020/12/23 01:03:28;;;;;;;50.63;29.60;;;12.50;99.90;;;;;;4971608;28;20438;-79
2020/12/23 01:05:55;;;;;;;50.45;29.42;;;12.50;99.90;;;;;;4973817;28;20434;-78
2020/12/23 01:08:21;;;;;;;54.00;30.10;;;12.50;99.90;;;;;;4976746;28;20408;-79
2020/12/23 01:10:48;;;;;;;55.95;30.73;;;12.50;99.90;;;;;;4971916;28;20483;-78
2020/12/23 01:13:15;;;;;;;56.65;31.30;;;12.50;99.90;;;;;;4971985;28;20430;-81
2020/12/23 01:15:41;;;;;;;57.80;32.23;;;12.50;99.90;;;;;;4972121;28;20969;-79
2020/12/23 01:18:10;;;;;;;58.17;31.65;;;12.50;99.90;;;;;;4984226;28;20778;-79
2020/12/23 01:20:37;;;;;;;60.28;32.83;;;12.50;99.90;;;;;;4975309;28;20518;-78
2020/12/23 01:23:04;;;;;;;66.85;33.35;;;12.50;99.90;;;;;;4970178;28;20495;-77
2020/12/23 01:25:31;;;;;;;67.47;33.90;;;12.50;99.90;;;;;;4973949;28;20426;-79
2020/12/23 01:27:58;;;;;;;64.60;34.25;;;12.50;99.90;;;;;;4973927;28;20457;-78
2020/12/23 01:30:24;;;;;;;67.63;34.22;;;12.50;99.90;;;;;;4983604;28;20505;-77
2020/12/23 01:32:51;;;;;;;62.58;33.38;;;12.50;99.90;;;;;;4979065;28;20417;-78
2020/12/23 01:35:17;;;;;;;65.22;34.17;;;12.50;99.90;;;;;;4976756;28;20437;-78
2020/12/23 01:37:44;;;;;;;65.35;33.92;;;12.50;99.90;;;;;;4972510;28;20430;-78
2020/12/23 01:40:12;;;;;;;73.22;33.50;;;12.50;99.90;;;;;;4981953;28;20549;-79
2020/12/23 01:42:38;;;;;;;67.10;33.90;;;12.40;99.90;;;;;;4975392;28;20419;-78
2020/12/23 01:45:05;;;;;;;67.30;33.95;;;12.40;99.90;;;;;;4971917;28;20870;-78
2020/12/23 01:47:33;;;;;;;68.47;33.85;;;12.40;99.90;;;;;;4979321;28;20790;-77
2020/12/23 01:50:00;;;;;;;69.77;33.90;;;12.40;99.90;;;;;;4985384;28;20535;-79
2020/12/23 01:52:27;;;;;;;72.75;33.97;;;12.40;99.90;;;;;;4971373;28;20501;-79
2020/12/23 01:54:55;;;;;;;74.63;34.63;;;12.50;99.90;;;;;;4982137;28;20436;-79
2020/12/23 01:57:22;;;;;;;81.35;36.40;;;12.50;99.90;;;;;;4976312;28;20875;-79
2020/12/23 01:59:49;;;;;;;84.73;36.00;;;12.50;99.90;;;;;;4972094;28;20435;-79
2020/12/23 02:02:34;;;;;;;92.72;37.85;;;12.50;99.90;;;;;;4973244;28;20426;-77
2020/12/23 02:05:03;;;;;;;97.07;38.58;;;12.40;99.90;;;;;;4982811;28;20892;-78
2020/12/23 02:07:34;;;;;;;91.23;38.57;;;12.50;99.90;;;;;;4972036;28;20529;-78
2020/12/23 02:10:03;;;;;;;98.90;39.28;;;12.50;99.90;;;;;;4982078;28;20535;-78
2020/12/23 02:12:30;;;;;;;105.30;40.23;;;12.40;99.90;;;;;;4976219;28;20514;-78
2020/12/23 02:15:07;;;;;;;94.85;34.75;;;12.40;99.90;;;;;;4982284;28;20189;-79
2020/12/23 02:17:33;;;;;;;102.40;34.95;;;12.10;99.90;;;;;;4984738;28;20205;-79
2020/12/23 02:20:00;;;;;;;111.63;41.87;;;11.80;99.90;;;;;;4972031;28;20480;-77
2020/12/23 02:22:29;;;;;;;121.97;43.95;;;11.90;99.90;;;;;;4980255;28;21362;-78
2020/12/23 02:24:55;;;;;;;120.15;44.75;;;12.10;99.90;;;;;;4989482;28;20426;-78
2020/12/23 02:27:23;;;;;;;127.03;45.00;;;12.20;99.90;;;;;;4984266;28;20519;-78
2020/12/23 02:29:50;;;;;;;115.65;38.70;;;12.30;99.90;;;;;;4977155;28;20542;-78
2020/12/23 02:32:17;;;;;;;111.38;37.25;;;12.00;99.90;;;;;;4983101;28;20189;-78
2020/12/23 02:34:44;;;;;;;108.60;36.15;;;11.70;99.90;;;;;;4982782;28;20218;-77
2020/12/23 02:37:11;;;;;;;131.85;45.58;;;11.50;99.90;;;;;;4985068;28;20447;-78
2020/12/23 02:39:39;;;;;;;125.53;45.13;;;11.70;99.90;;;;;;4989091;28;20444;-77
2020/12/23 02:42:07;;;;;;;126.53;46.10;;;11.90;99.90;;;;;;4981057;28;20414;-78
2020/12/23 02:44:35;;;;;;;140.50;46.13;;;12.10;99.90;;;;;;4991580;28;20438;-77
2020/12/23 02:47:04;;;;;;;138.02;45.30;;;12.10;99.90;;;;;;4976313;28;20516;-78
2020/12/23 02:49:35;;;;;;;125.72;45.95;;;12.20;99.90;;;;;;4983934;28;20775;-79
2020/12/23 02:52:01;;;;;;;137.07;45.67;;;12.20;99.90;;;;;;4972989;28;20772;-78
2020/12/23 02:54:28;;;;;;;130.30;45.15;;;12.20;99.90;;;;;;4981538;28;20437;-78
2020/12/23 02:56:55;;;;;;;144.88;46.63;;;12.20;99.90;;;;;;4985582;28;20414;-78
2020/12/23 02:59:21;;;;;;;141.50;46.70;;;12.30;99.90;;;;;;4986411;28;20434;-78
2020/12/23 03:01:48;;;;;;;152.25;47.15;;;12.30;99.90;;;;;;4974783;28;20426;-78
2020/12/23 03:04:15;;;;;;;152.60;46.97;;;12.30;99.90;;;;;;4974395;28;20527;-78
2020/12/23 03:06:41;;;;;;;146.32;45.40;;;12.30;99.90;;;;;;4985574;28;20902;-77
2020/12/23 03:09:09;;;;;;;151.77;45.65;;;12.30;99.90;;;;;;4983298;28;20430;-77
2020/12/23 03:11:36;;;;;;;146.88;46.28;;;12.30;99.90;;;;;;4974528;28;20422;-78
2020/12/23 03:14:04;;;;;;;172.02;47.35;;;12.30;99.90;;;;;;4973255;28;20440;-76
2020/12/23 03:16:31;;;;;;;164.33;47.50;;;12.30;99.90;;;;;;4972131;28;20447;-75
2020/12/23 03:18:58;;;;;;;160.20;46.55;;;12.30;99.90;;;;;;4973903;28;20521;-79
2020/12/23 03:21:25;;;;;;;167.60;47.00;;;12.30;99.90;;;;;;4986573;28;20418;-79
2020/12/23 03:23:51;;;;;;;150.20;46.93;;;12.30;99.90;;;;;;4985507;28;22431;-78
2020/12/23 03:26:18;;;;;;;146.15;46.58;;;12.30;99.90;;;;;;4983323;28;20420;-78
2020/12/23 03:28:44;;;;;;;155.18;45.95;;;12.30;99.90;;;;;;4974102;28;20434;-78
2020/12/23 03:31:12;;;;;;;148.02;44.80;;;12.30;99.90;;;;;;4982290;28;20435;-77
2020/12/23 03:33:39;;;;;;;125.43;43.70;;;12.30;99.90;;;;;;4972827;28;20419;-77
2020/12/23 03:36:05;;;;;;;150.43;44.45;;;12.30;99.90;;;;;;4985041;28;20434;-79
2020/12/23 03:38:31;;;;;;;145.50;45.05;;;12.30;99.90;;;;;;4980479;28;20419;-75
2020/12/23 03:40:58;;;;;;;149.43;45.05;;;12.30;99.90;;;;;;4978909;28;20428;-78
2020/12/23 03:43:24;;;;;;;145.20;44.47;;;12.30;99.90;;;;;;4973530;28;20430;-79
2020/12/23 03:45:51;;;;;;;137.57;44.43;;;12.30;99.90;;;;;;4982937;28;20418;-80
2020/12/23 03:48:19;;;;;;;157.05;43.78;;;12.30;99.90;;;;;;4974850;28;20826;-78
2020/12/23 03:50:45;;;;;;;127.28;42.85;;;12.30;99.90;;;;;;4990512;28;20417;-79
2020/12/23 03:53:15;;;;;;;121.30;42.37;;;12.30;99.90;;;;;;4988768;28;20508;-78
2020/12/23 03:55:41;;;;;;;117.70;41.47;;;12.30;99.90;;;;;;4984630;28;20909;-78
2020/12/23 03:58:08;;;;;;;146.00;42.22;;;12.30;99.90;;;;;;4987086;28;20429;-79
2020/12/23 04:00:34;;;;;;;125.70;41.47;;;12.30;99.90;;;;;;4981232;28;21011;-78
2020/12/23 04:03:02;;;;;;;116.82;40.60;;;12.30;99.90;;;;;;4975310;28;20433;-78
2020/12/23 04:05:30;;;;;;;119.60;42.05;;;12.30;99.90;;;;;;4986119;28;20481;-75
2020/12/23 04:07:56;;;;;;;108.45;41.15;;;12.30;99.90;;;;;;4974815;28;20418;-79
2020/12/23 04:10:25;;;;;;;116.37;42.23;;;12.30;99.90;;;;;;4980959;28;20795;-78
2020/12/23 04:12:52;;;;;;;130.50;42.22;;;12.30;99.90;;;;;;4981827;28;20422;-79
2020/12/23 04:15:18;;;;;;;118.93;41.83;;;12.40;99.90;;;;;;4971216;28;20646;-79
2020/12/23 04:17:45;;;;;;;132.15;41.50;;;12.40;99.90;;;;;;4974350;28;20418;-80
2020/12/23 04:20:12;;;;;;;124.80;41.80;;;12.40;99.90;;;;;;4979818;28;20434;-80
2020/12/23 04:22:39;;;;;;;120.05;40.58;;;12.40;99.90;;;;;;4979834;28;20468;-78
2020/12/23 04:25:07;;;;;;;100.32;39.50;;;12.40;99.90;;;;;;4985775;28;20496;-79
2020/12/23 04:27:33;;;;;;;99.57;39.25;;;12.40;99.90;;;;;;4984642;28;20822;-79
2020/12/23 04:30:00;;;;;;;101.40;38.45;;;12.40;99.90;;;;;;4985826;28;20440;-78
2020/12/23 04:32:27;;;;;;;110.40;37.88;;;12.40;99.90;;;;;;4971490;28;20831;-80
2020/12/23 04:34:53;;;;;;;107.13;38.88;;;12.40;99.90;;;;;;4978750;28;20862;-80
2020/12/23 04:37:20;;;;;;;109.18;38.95;;;12.40;99.90;;;;;;4984849;28;20503;-78
2020/12/23 04:39:47;;;;;;;120.50;40.00;;;12.40;99.90;;;;;;4980901;28;20428;-79
2020/12/23 04:42:13;;;;;;;105.70;39.70;;;12.40;99.90;;;;;;4975030;28;20426;-80
2020/12/23 04:44:40;;;;;;;134.68;40.20;;;12.40;99.90;;;;;;4983490;28;20526;-79
2020/12/23 04:47:13;;;;;;;125.18;41.05;;;12.40;99.90;;;;;;4985579;28;20435;-79
2020/12/23 04:49:41;;;;;;;130.82;39.95;;;12.40;99.90;;;;;;4990895;28;20572;-78
2020/12/23 04:52:08;;;;;;;146.70;40.50;;;12.40;99.90;;;;;;4989653;28;20842;-79
2020/12/23 04:54:37;;;;;;;146.13;41.95;;;12.40;99.90;;;;;;4983677;28;21287;-80
2020/12/23 04:57:06;;;;;;;158.88;42.00;;;12.40;99.90;;;;;;4980558;28;20507;-79
2020/12/23 04:59:33;;;;;;;139.10;41.25;;;12.40;99.90;;;;;;4982265;28;20528;-78
2020/12/23 05:02:02;;;;;;;178.65;40.92;;;12.40;99.90;;;;;;4980496;28;20454;-77
2020/12/23 05:04:28;;;;;;;142.70;41.70;;;12.40;99.90;;;;;;4987008;28;20447;-78
2020/12/23 05:07:03;;;;;;;193.65;43.65;;;12.40;99.90;;;;;;4982555;28;20439;-78
2020/12/23 05:09:30;;;;;;;205.50;43.60;;;12.50;99.90;;;;;;4983866;28;20454;-79
2020/12/23 05:11:57;;;;;;;222.43;44.40;;;12.50;99.90;;;;;;4979737;28;20448;-78
2020/12/23 05:14:25;;;;;;;151.00;44.00;;;12.40;99.90;;;;;;4982530;28;20430;-80
2020/12/23 05:16:52;;;;;;;189.43;45.28;;;12.40;99.90;;;;;;4973694;28;20775;-77
2020/12/23 05:19:19;;;;;;;164.88;45.08;;;12.40;99.90;;;;;;4985928;28;20530;-78
2020/12/23 05:21:46;;;;;;;182.07;45.53;;;12.40;99.90;;;;;;4979284;28;20505;-78
2020/12/23 05:24:13;;;;;;;175.98;46.15;;;12.40;99.90;;;;;;4978072;28;20529;-79
2020/12/23 05:26:43;;;;;;;176.90;45.78;;;12.40;99.90;;;;;;4980085;28;20424;-79
2020/12/23 05:29:11;;;;;;;194.93;46.35;;;12.40;99.90;;;;;;4983537;28;20458;-79
2020/12/23 05:31:39;;;;;;;192.43;47.13;;;12.40;99.90;;;;;;4980280;28;20454;-80
2020/12/23 05:34:06;;;;;;;181.38;47.25;;;12.40;99.90;;;;;;4981872;28;20954;-81
2020/12/23 05:36:34;;;;;;;201.02;47.25;;;12.50;99.90;;;;;;4983988;28;20972;-80
2020/12/23 05:39:01;;;;;;;172.45;46.30;;;12.40;99.90;;;;;;4986197;28;20436;-77
2020/12/23 05:41:28;;;;;;;148.23;46.33;;;12.40;99.90;;;;;;4973626;28;20454;-77
2020/12/23 05:43:54;;;;;;;153.75;46.75;;;12.50;99.90;;;;;;4973104;28;20422;-76
2020/12/23 05:46:21;;;;;;;147.23;46.55;;;12.50;99.90;;;;;;4983747;28;20410;-79
2020/12/23 05:48:48;;;;;;;168.23;47.03;;;12.50;99.90;;;;;;4970645;28;20922;-79
2020/12/23 05:51:14;;;;;;;144.63;45.60;;;12.50;99.90;;;;;;4980834;28;20422;-79
2020/12/23 05:53:41;;;;;;;135.73;44.85;;;12.50;99.90;;;;;;4975455;28;20412;-80
2020/12/23 05:56:08;;;;;;;140.27;45.17;;;12.50;99.90;;;;;;4982487;28;20430;-83
2020/12/23 05:58:36;;;;;;;140.20;44.72;;;12.60;99.90;;;;;;4981734;28;20852;-78
2020/12/23 06:01:05;;;;;;;137.43;44.72;;;12.50;99.90;;;;;;4982472;28;20439;-78
2020/12/23 06:03:55;;;;;;;124.85;42.65;;;12.50;99.90;;;;;;4968859;28;20431;-78
2020/12/23 06:06:24;;;;;;;113.50;41.75;;;12.50;99.90;;;;;;4967593;28;20459;-77
2020/12/23 06:08:55;;;;;;;127.25;41.00;;;12.60;99.90;;;;;;4981524;28;20428;-76
2020/12/23 06:11:30;;;;;;;109.23;40.00;;;12.60;99.90;;;;;;4980859;28;20405;-78
2020/12/23 06:14:16;;;;;;;142.98;40.55;;;12.60;99.90;;;;;;4974956;28;20448;-77
2020/12/23 06:16:44;;;;;;;115.60;39.30;;;12.60;99.90;;;;;;4990858;28;20509;-77
2020/12/23 06:19:24;;;;;;;101.38;38.20;;;12.60;99.90;;;;;;4986430;28;20525;-79
2020/12/23 06:21:51;;;;;;;108.05;38.08;;;12.60;99.90;;;;;;4972428;28;21021;-80
2020/12/23 06:24:18;;;;;;;102.35;37.15;;;12.60;99.90;;;;;;4973741;28;20966;-77
2020/12/23 06:26:46;;;;;;;99.03;37.78;;;12.60;99.90;;;;;;4972318;28;21244;-76
2020/12/23 06:29:13;;;;;;;100.37;37.07;;;12.60;99.90;;;;;;4978896;28;20425;-81
2020/12/23 06:31:45;;;;;;;111.78;38.72;;;12.60;99.90;;;;;;4986133;28;20486;-81
2020/12/23 06:34:19;;;;;;;121.97;39.90;;;12.50;99.90;;;;;;4984746;28;20504;-80
2020/12/23 06:36:47;;;;;;;118.65;41.20;;;12.50;99.90;;;;;;4979438;28;20408;-82
2020/12/23 06:39:31;;;;;;;122.57;40.63;;;12.50;99.90;;;;;;4982828;28;20447;-79
2020/12/23 06:42:36;;;;;;;119.43;43.85;;;12.50;99.90;;;;;;4972087;28;20513;-79
2020/12/23 06:45:05;;;;;;;120.70;40.85;;;12.60;99.90;;;;;;4984878;28;20455;-81
2020/12/23 06:47:36;;;;;;;122.30;40.67;;;12.60;99.90;;;;;;4972693;28;20422;-81
2020/12/23 06:50:07;;;;;;;127.35;41.40;;;12.60;99.90;;;;;;4974089;28;20431;-81
2020/12/23 06:52:44;;;;;;;118.75;39.47;;;12.60;99.90;;;;;;4973183;28;20492;-82
2020/12/23 06:55:14;;;;;;;119.78;39.78;;;12.60;99.90;;;;;;4972557;28;20453;-81
2020/12/23 06:57:56;;;;;;;110.38;38.13;;;12.60;99.90;;;;;;4980391;28;20424;-81
2020/12/23 07:00:42;;;;;;;106.97;37.17;;;12.60;99.90;;;;;;4980868;28;20434;-81
2020/12/23 07:03:19;;;;;;;106.13;36.83;;;12.60;99.90;;;;;;4971545;28;20426;-81
2020/12/23 07:05:48;;;;;;;139.57;37.15;;;12.60;99.90;;;;;;4982894;28;20445;-81
2020/12/23 07:08:16;;;;;;;119.10;35.72;;;12.60;99.90;;;;;;4984880;28;20440;-81
2020/12/23 07:10:48;;;;;;;108.95;34.60;;;12.70;99.90;;;;;;4983478;28;20472;-80
2020/12/23 07:13:17;;;;;;;102.73;33.60;;;12.70;99.90;;;;;;4985637;28;20410;-81
2020/12/23 07:15:51;;;;;;;94.68;33.83;;;12.70;99.90;;;;;;4988636;28;20418;-79
2020/12/23 07:18:22;;;;;;;99.15;33.90;;;12.70;99.90;;;;;;4989495;28;20433;-79
2020/12/23 07:21:02;;;;;;;110.90;35.10;;;12.70;99.90;;;;;;4983302;28;20435;-79
2020/12/23 07:23:30;;;;;;;107.88;34.75;;;12.70;99.90;;;;;;4982183;28;20481;-80
2020/12/23 07:25:58;;;;;;;109.07;34.97;;;12.70;99.90;;;;;;4985380;28;20552;-81
2020/12/23 07:28:31;;;;;;;115.13;33.35;;;12.70;99.90;;;;;;4988437;28;20444;-80
2020/12/23 07:31:01;;;;;;;119.68;31.85;;;12.70;99.90;;;;;;4971752;28;20429;-80
2020/12/23 07:33:30;;;;;;;106.95;32.33;;;12.80;99.90;;;;;;4987369;28;20493;-80
2020/12/23 07:35:59;;;;;;;88.22;30.50;;;12.80;99.90;;;;;;4982514;28;20448;-80
2020/12/23 07:38:27;;;;;;;103.47;31.48;;;12.80;99.90;;;;;;4985638;28;20466;-79
2020/12/23 07:40:53;;;;;;;87.80;29.70;;;12.80;99.90;;;;;;4971611;28;20451;-78
2020/12/23 07:43:21;;;;;;;101.88;29.35;;;12.80;99.90;;;;;;4983775;28;20450;-80
2020/12/23 07:45:49;;;;;;;82.75;28.73;;;12.80;99.90;;;;;;4974543;28;20422;-80
2020/12/23 07:48:16;;;;;;;87.70;27.57;;;12.80;99.90;;;;;;4986538;28;20510;-80
2020/12/23 07:50:46;;;;;;;78.80;27.63;;;12.90;99.90;;;;;;4983285;28;20474;-78
2020/12/23 07:53:14;;;;;;;102.32;27.10;;;12.90;99.90;;;;;;4980906;28;20507;-80
2020/12/23 07:55:41;;;;;;;85.40;27.20;;;12.90;99.90;;;;;;4971362;28;20789;-78
2020/12/23 07:58:08;;;;;;;98.10;27.27;;;12.90;99.90;;;;;;4974373;28;20484;-79
2020/12/23 08:00:37;;;;;;;96.03;27.00;;;12.90;99.90;;;;;;4987834;28;20465;-81
2020/12/23 08:03:04;;;;;;;90.38;26.42;;;12.90;99.90;;;;;;4984947;28;20416;-79
2020/12/23 08:05:30;;;;;;;80.00;26.67;;;12.90;99.90;;;;;;4973481;28;20445;-78
2020/12/23 08:07:57;;;;;;;87.03;27.20;;;12.90;99.90;;;;;;4986779;28;20431;-80
2020/12/23 08:10:24;;;;;;;78.95;26.75;;;12.90;99.90;;;;;;4972857;28;20480;-81
2020/12/23 08:12:53;;;;;;;76.72;26.20;;;13.00;99.90;;;;;;4982351;28;20437;-80
2020/12/23 08:15:20;;;;;;;76.73;26.70;;;13.00;99.90;;;;;;4982844;28;20445;-81
2020/12/23 08:17:46;;;;;;;76.68;27.00;;;13.00;99.90;;;;;;4987546;28;20511;-81
2020/12/23 08:20:16;;;;;;;76.32;27.10;;;13.00;99.90;;;;;;4983277;28;20946;-81
2020/12/23 08:22:44;;;;;;;73.93;27.08;;;13.00;99.90;;;;;;4980767;28;20430;-80
2020/12/23 08:25:13;;;;;;;75.70;27.80;;;13.00;99.90;;;;;;4973561;28;20438;-80
2020/12/23 08:27:42;;;;;;;68.67;26.87;;;13.00;99.90;;;;;;4989070;28;20509;-81
2020/12/23 08:30:11;;;;;;;70.45;26.42;;;13.00;99.90;;;;;;4987336;28;20433;-81
2020/12/23 08:32:43;;;;;;;72.32;28.10;;;13.00;99.90;;;;;;4974724;28;20430;-81
2020/12/23 08:35:10;;;;;;;65.30;26.10;;;13.00;99.90;;;;;;4984048;28;20462;-79
2020/12/23 08:37:37;;;;;;;60.47;25.25;;;13.00;99.90;;;;;;4981382;28;20436;-81
2020/12/23 08:40:06;;;;;;;55.70;24.10;;;13.10;99.90;;;;;;4984387;28;20574;-85
2020/12/23 08:42:35;;;;;;;50.05;21.67;;;13.00;99.90;;;;;;4986791;28;20422;-81
2020/12/23 08:45:11;;;;;;;44.95;20.77;;;13.00;99.90;;;;;;4984846;28;20427;-85
2020/12/23 08:47:38;;;;;;;37.70;17.48;;;13.00;99.90;;;;;;4982777;28;20507;-81
2020/12/23 08:50:04;;;;;;;38.72;17.42;;;13.00;99.90;;;;;;4981766;28;20467;-80
2020/12/23 08:52:30;;;;;;;34.40;16.65;;;13.00;99.90;;;;;;4988409;28;20441;-83
2020/12/23 08:54:57;;;;;;;34.28;16.45;;;13.00;99.90;;;;;;4984553;28;20414;-83
2020/12/23 08:57:26;;;;;;;35.20;17.50;;;13.00;99.90;;;;;;4982223;28;21158;-81
2020/12/23 08:59:53;;;;;;;35.20;18.50;;;13.00;99.90;;;;;;4984015;28;20435;-82
2020/12/23 09:02:22;;;;;;;33.60;18.35;;;13.00;99.90;;;;;;4981405;28;20432;-80
2020/12/23 09:04:48;;;;;;;32.85;18.83;;;13.00;99.90;;;;;;4985721;28;20434;-81
2020/12/23 09:07:21;;;;;;;32.30;19.05;;;13.00;99.90;;;;;;4979900;28;20428;-81
2020/12/23 09:09:47;;;;;;;35.22;19.63;;;13.10;99.90;;;;;;4983617;28;20413;-81
2020/12/23 09:12:22;;;;;;;37.53;20.03;;;13.00;99.90;;;;;;4972823;28;20426;-79
2020/12/23 09:14:48;;;;;;;39.30;22.15;;;13.00;99.90;;;;;;4973257;28;20462;-80
2020/12/23 09:17:24;;;;;;;42.95;22.30;;;13.10;99.90;;;;;;4972161;28;20921;-80
2020/12/23 09:19:59;;;;;;;40.83;23.30;;;13.10;99.90;;;;;;4980780;28;20527;-78
2020/12/23 09:22:30;;;;;;;47.17;24.63;;;13.10;99.90;;;;;;4990333;28;20814;-80
2020/12/23 09:25:14;;;;;;;48.55;25.17;;;13.10;99.90;;;;;;4980878;28;20423;-80
2020/12/23 09:27:41;;;;;;;52.15;26.98;;;13.10;99.90;;;;;;4983296;28;20878;-80
2020/12/23 09:30:08;;;;;;;52.73;27.60;;;13.10;99.90;;;;;;4973332;28;20423;-81
2020/12/23 09:32:36;;;;;;;53.93;27.80;;;13.10;99.90;;;;;;4985144;28;20921;-83
2020/12/23 09:35:18;;;;;;;53.95;28.60;;;13.20;99.90;;;;;;4972743;28;20521;-79
2020/12/23 09:37:45;;;;;;;60.63;30.23;;;13.10;99.90;;;;;;4972179;28;20436;-79
2020/12/23 09:40:13;;;;;;;58.85;30.23;;;13.20;99.90;;;;;;4978554;28;20445;-78
2020/12/23 09:42:39;;;;;;;60.10;31.13;;;13.20;99.90;;;;;;4979763;28;20419;-80
2020/12/23 09:45:07;;;;;;;60.80;31.00;;;13.20;99.90;;;;;;4975133;28;20460;-79
2020/12/23 09:47:34;;;;;;;58.55;29.83;;;13.20;99.90;;;;;;4971188;28;20438;-79
2020/12/23 09:50:02;;;;;;;59.22;30.60;;;13.20;99.90;;;;;;4982018;28;20425;-80
2020/12/23 09:52:29;;;;;;;60.07;30.30;;;13.20;99.90;;;;;;4984530;28;20446;-79
2020/12/23 09:54:56;;;;;;;59.45;29.88;;;13.20;99.90;;;;;;4971254;28;20538;-79
2020/12/23 09:57:22;;;;;;;55.38;29.02;;;13.20;99.90;;;;;;4979608;28;20773;-80
2020/12/23 09:59:48;;;;;;;51.20;28.17;;;13.20;99.90;;;;;;4984099;28;20518;-79
2020/12/23 10:02:15;;;;;;;49.10;27.13;;;13.20;99.90;;;;;;4981861;28;20445;-79
2020/12/23 10:04:42;;;;;;;47.70;26.58;;;13.20;99.90;;;;;;4971529;28;20417;-80
2020/12/23 10:07:10;;;;;;;44.03;25.80;;;13.20;99.90;;;;;;4985904;28;20528;-83
2020/12/23 10:09:36;;;;;;;42.90;25.42;;;13.30;99.90;;;;;;4987659;28;20484;-81
2020/12/23 10:12:03;;;;;;;39.95;24.63;;;13.20;99.90;;;;;;4971707;28;20485;-81
2020/12/23 10:14:29;;;;;;;41.22;25.30;;;13.30;99.90;;;;;;4981592;28;20506;-80
2020/12/23 10:16:56;;;;;;;41.67;25.60;;;13.30;99.90;;;;;;4981834;28;20434;-79
2020/12/23 10:19:22;;;;;;;38.70;24.63;;;13.30;99.90;;;;;;4980219;28;20438;-82
2020/12/23 10:21:49;;;;;;;36.45;24.00;;;13.30;99.90;;;;;;4984668;28;20444;-81
2020/12/23 10:24:16;;;;;;;34.10;22.35;;;13.30;99.90;;;;;;4986440;28;20424;-81
2020/12/23 10:26:43;;;;;;;35.85;22.70;;;13.30;99.90;;;;;;4984357;28;20434;-81
2020/12/23 10:29:09;;;;;;;33.60;22.40;;;13.30;99.90;;;;;;4985584;28;20422;-79
2020/12/23 10:31:36;;;;;;;28.95;19.88;;;13.30;99.90;;;;;;4983082;28;20429;-81
2020/12/23 10:34:02;;;;;;;30.73;20.02;;;13.30;99.90;;;;;;4971735;28;20435;-80
2020/12/23 10:36:29;;;;;;;30.45;19.98;;;13.30;99.90;;;;;;4970035;28;20430;-80
2020/12/23 10:38:56;;;;;;;32.27;20.87;;;13.30;99.90;;;;;;4987956;28;21981;-80
2020/12/23 10:41:23;;;;;;;37.47;22.08;;;13.30;99.90;;;;;;4980496;28;20488;-81
2020/12/23 10:43:49;;;;;;;36.90;22.00;;;13.30;99.90;;;;;;4974030;28;20418;-81
2020/12/23 10:46:15;;;;;;;42.05;21.80;;;13.30;99.90;;;;;;4990085;28;20436;-80
2020/12/23 10:48:42;;;;;;;39.17;23.17;;;13.30;99.90;;;;;;4976563;28;20441;-82
2020/12/23 10:51:08;;;;;;;45.45;25.48;;;13.40;99.90;;;;;;4985625;28;20436;-80
2020/12/23 10:53:38;;;;;;;41.60;23.63;;;13.40;99.90;;;;;;4980885;28;20816;-82
2020/12/23 10:56:07;;;;;;;40.65;24.83;;;13.40;99.90;;;;;;4976053;28;20513;-80
2020/12/23 10:58:34;;;;;;;40.58;24.90;;;13.40;99.90;;;;;;4975060;28;20786;-79
2020/12/23 11:01:04;;;;;;;41.50;25.70;;;13.40;99.90;;;;;;4985019;28;20447;-80
2020/12/23 11:03:31;;;;;;;42.95;25.38;;;13.40;99.90;;;;;;4974734;28;20439;-82
2020/12/23 11:05:57;;;;;;;45.65;26.98;;;13.40;99.90;;;;;;4974720;28;20425;-81
2020/12/23 11:08:24;;;;;;;43.00;26.73;;;13.40;99.90;;;;;;4974358;28;20431;-81
2020/12/23 11:10:50;;;;;;;44.17;28.35;;;13.40;99.90;;;;;;4986072;28;20983;-81
2020/12/23 11:13:18;;;;;;;51.17;30.17;;;13.40;99.90;;;;;;4984710;28;20491;-81
2020/12/23 11:15:44;;;;;;;43.75;29.08;;;13.40;99.90;;;;;;4976923;28;20775;-80
2020/12/23 11:18:11;;;;;;;48.97;30.38;;;13.40;99.90;;;;;;4975293;28;20537;-80
2020/12/23 11:20:37;;;;;;;48.83;31.17;;;13.40;99.90;;;;;;4975200;28;20434;-81
2020/12/23 11:23:04;;;;;;;56.37;32.70;;;13.50;99.90;;;;;;4984785;28;20432;-81
2020/12/23 11:25:31;;;;;;;52.90;30.30;;;13.50;99.90;;;;;;4980705;28;20464;-81
2020/12/23 11:27:57;;;;;;;54.38;30.70;;;13.50;99.90;;;;;;4976447;28;20440;-81
2020/12/23 11:30:25;;;;;;;51.13;29.98;;;13.40;99.90;;;;;;4986205;28;20818;-81
2020/12/23 11:32:51;;;;;;;50.55;29.38;;;13.50;99.90;;;;;;4975806;28;20435;-79
2020/12/23 11:35:18;;;;;;;46.05;27.60;;;13.50;99.90;;;;;;4984968;28;20438;-81
2020/12/23 11:37:44;;;;;;;47.28;26.80;;;13.40;99.90;;;;;;4975697;28;20525;-82
2020/12/23 11:40:11;;;;;;;49.23;26.93;;;13.50;99.90;;;;;;4986558;28;20446;-81
2020/12/23 11:42:41;;;;;;;42.23;24.43;;;13.50;99.90;;;;;;4983400;28;20445;-82
2020/12/23 11:45:09;;;;;;;46.10;25.38;;;13.50;99.90;;;;;;4973621;28;21417;-81
2020/12/23 11:47:37;;;;;;;42.50;23.45;;;13.50;99.90;;;;;;4986586;28;20406;-81
2020/12/23 11:50:04;;;;;;;40.20;22.75;;;13.50;99.90;;;;;;4976139;28;20505;-81
2020/12/23 11:52:31;;;;;;;44.00;23.50;;;13.50;99.90;;;;;;4985176;28;20418;-81
2020/12/23 11:54:57;;;;;;;39.13;22.52;;;13.50;99.90;;;;;;4986400;28;20423;-80
2020/12/23 11:57:24;;;;;;;54.97;22.85;;;13.50;99.90;;;;;;4987764;28;20505;-80
2020/12/23 11:59:50;;;;;;;42.47;23.57;;;13.50;99.90;;;;;;4974741;28;20442;-82
2020/12/23 12:02:17;;;;;;;39.70;22.30;;;13.50;99.90;;;;;;4984140;28;20422;-80
2020/12/23 12:04:44;;;;;;;37.53;20.87;;;13.50;99.90;;;;;;4982009;28;20454;-81
2020/12/23 12:07:10;;;;;;;35.47;20.33;;;13.50;99.90;;;;;;4985136;28;20450;-80
2020/12/23 12:09:37;;;;;;;34.60;18.85;;;13.50;99.90;;;;;;4981176;28;20427;-81
2020/12/23 12:12:03;;;;;;;33.08;17.98;;;13.50;99.90;;;;;;4982413;28;20422;-81
2020/12/23 12:14:30;;;;;;;31.38;17.40;;;13.50;99.90;;;;;;4983499;28;20432;-82
2020/12/23 12:16:56;;;;;;;32.50;17.00;;;13.50;99.90;;;;;;4983599;28;20799;-81
2020/12/23 12:19:23;;;;;;;30.57;15.60;;;13.60;99.90;;;;;;4975927;28;20430;-80
2020/12/23 12:21:50;;;;;;;25.13;14.48;;;13.60;99.90;;;;;;4986792;28;20511;-80
2020/12/23 12:24:17;;;;;;;27.67;14.73;;;13.50;99.90;;;;;;4973958;28;20508;-81
2020/12/23 12:26:43;;;;;;;26.88;14.07;;;13.60;99.90;;;;;;4972317;28;20469;-81
2020/12/23 12:29:10;;;;;;;21.50;12.68;;;13.60;99.90;;;;;;4983197;28;20452;-79